createdAt,value
2022-10-22T00:00:29.203Z,89.50
2022-10-22T00:05:56.201Z,89.24
2022-10-22T00:11:11.386Z,89.65
2022-10-22T00:16:19.518Z,90.08
2022-10-22T00:21:36.598Z,89.68
2022-10-22T00:26:43.541Z,89.51
2022-10-22T00:31:51.560Z,89.51
2022-10-22T00:36:58.749Z,89.13
2022-10-22T00:42:05.914Z,88.44
2022-10-22T00:47:13.167Z,88.80
2022-10-22T00:52:21.168Z,88.46
2022-10-22T00:57:29.171Z,88.33
2022-10-22T01:02:36.345Z,88.23
2022-10-22T01:07:48.241Z,88.68
2022-10-22T01:13:05.149Z,88.69
2022-10-22T01:18:17.491Z,89.12
2022-10-22T01:23:44.882Z,88.85
2022-10-22T01:29:00.188Z,89.47
2022-10-22T01:34:08.238Z,89.51
2022-10-22T01:39:18.400Z,89.35
2022-10-22T01:44:30.414Z,89.15
2022-10-22T01:50:04.703Z,89.38
2022-10-22T01:55:23.265Z,89.42
2022-10-22T02:00:31.550Z,89.45
2022-10-22T02:05:44.841Z,89.04
2022-10-22T02:10:54.775Z,89.44
2022-10-22T02:16:04.299Z,89.80
2022-10-22T02:21:12.313Z,89.60
2022-10-22T02:26:24.921Z,89.20
2022-10-22T02:31:36.985Z,89.75
2022-10-22T02:36:48.234Z,90.24
2022-10-22T02:41:58.283Z,90.28
2022-10-22T02:47:05.376Z,90.62
2022-10-22T03:02:43.756Z,91.24
2022-10-22T03:07:50.786Z,91.18
2022-10-22T03:12:57.889Z,91.31
2022-10-22T03:18:03.213Z,91.37
2022-10-22T03:23:10.605Z,91.30
2022-10-22T03:28:20.850Z,90.66
2022-10-22T03:33:27.872Z,91.65
2022-10-22T03:38:36.053Z,91.88
2022-10-22T03:43:43.357Z,91.81
2022-10-22T03:48:50.717Z,91.44
2022-10-22T03:53:57.984Z,91.69
2022-10-22T04:09:03.881Z,93.56
2022-10-22T04:14:12.099Z,93.26
2022-10-22T04:19:19.910Z,93.05
2022-10-22T04:24:29.142Z,94.27
2022-10-22T04:29:36.245Z,94.05
2022-10-22T04:34:43.121Z,94.28
2022-10-22T04:39:50.327Z,93.96
2022-10-22T04:44:57.315Z,93.86
2022-10-22T04:50:05.447Z,94.14
2022-10-22T04:55:12.927Z,94.60
2022-10-22T05:00:21.223Z,94.65
2022-10-22T05:05:28.279Z,94.92
2022-10-22T05:10:33.731Z,94.88
2022-10-22T05:15:40.737Z,94.72
2022-10-22T05:20:47.946Z,94.29
2022-10-22T05:25:53.532Z,94.40
2022-10-22T05:31:02.352Z,95.11
2022-10-22T05:36:12.947Z,95.55
2022-10-22T05:41:22.064Z,95.27
2022-10-22T05:46:31.250Z,94.40
2022-10-22T05:51:39.009Z,94.08
2022-10-22T05:56:46.522Z,93.89
2022-10-22T06:01:53.749Z,94.35
2022-10-22T06:06:59.317Z,94.89
2022-10-22T06:12:11.060Z,95.45
2022-10-22T06:21:22.066Z,96.41
2022-10-22T06:26:30.046Z,96.14
2022-10-22T06:31:38.335Z,96.27
2022-10-22T06:36:47.750Z,96.38
2022-10-22T06:41:54.770Z,96.48
2022-10-22T06:47:02.668Z,96.46
2022-10-22T06:52:09.618Z,96.98
2022-10-22T06:57:17.213Z,96.84
2022-10-22T07:02:24.670Z,96.39
2022-10-22T07:07:29.981Z,96.14
2022-10-22T07:12:38.480Z,95.78
2022-10-22T07:17:46.010Z,95.60
2022-10-22T07:22:51.668Z,94.82
2022-10-22T07:27:58.852Z,94.03
2022-10-22T07:33:04.601Z,93.21
2022-10-22T07:38:11.723Z,92.16
2022-10-22T07:43:17.578Z,90.57
2022-10-22T07:48:25.457Z,90.24
2022-10-22T07:53:33.231Z,89.57
2022-10-22T07:58:42.146Z,88.99
2022-10-22T08:03:49.912Z,88.80
2022-10-22T08:08:57.049Z,87.80
2022-10-22T08:14:04.511Z,87.55
2022-10-22T08:19:11.996Z,86.54
2022-10-22T08:24:19.199Z,86.70
2022-10-22T08:29:27.150Z,86.41
2022-10-22T08:34:34.222Z,84.96
2022-10-22T08:39:42.338Z,84.30
2022-10-22T08:45:04.483Z,83.40
2022-10-22T08:50:17.218Z,83.67
2022-10-22T08:55:27.261Z,83.65
2022-10-22T09:00:42.330Z,82.82
2022-10-22T09:05:57.476Z,82.03
2022-10-22T09:11:16.315Z,82.17
2022-10-22T09:16:28.391Z,81.89
2022-10-22T09:21:47.475Z,82.08
2022-10-22T09:26:54.519Z,81.80
2022-10-22T09:32:01.850Z,82.01
2022-10-22T09:37:11.025Z,81.71
2022-10-22T09:42:21.442Z,82.14
2022-10-22T09:48:00.677Z,81.87
2022-10-22T09:53:14.128Z,80.72
2022-10-22T09:58:22.127Z,80.29
2022-10-22T10:03:32.194Z,80.51
2022-10-22T10:08:39.362Z,80.88
2022-10-22T10:13:55.354Z,80.83
2022-10-22T10:19:21.595Z,80.43
2022-10-22T10:24:36.712Z,80.44
2022-10-22T10:29:56.150Z,80.74
2022-10-22T10:35:16.666Z,79.85
2022-10-22T10:40:29.916Z,79.45
2022-10-22T10:45:46.276Z,79.30
2022-10-22T10:51:07.862Z,79.33
2022-10-22T10:56:30.167Z,78.96
2022-10-22T11:01:46.476Z,79.16
2022-10-22T11:07:10.748Z,79.28
2022-10-22T11:12:30.237Z,79.88
2022-10-22T11:21:41.490Z,81.38
2022-10-22T11:26:57.822Z,82.31
2022-10-22T11:32:06.754Z,83.18
2022-10-22T11:37:15.795Z,84.21
2022-10-22T11:42:24.971Z,84.77
2022-10-22T11:47:36.737Z,86.08
2022-10-22T11:52:56.279Z,86.03
2022-10-22T11:58:24.615Z,87.22
2022-10-22T12:03:45.278Z,87.24
2022-10-22T12:09:00.615Z,87.04
2022-10-22T12:14:19.869Z,88.30
2022-10-22T12:19:37.636Z,88.88
2022-10-22T12:24:49.604Z,89.74
2022-10-22T12:30:00.293Z,90.25
2022-10-22T12:35:16.092Z,90.48
2022-10-22T12:40:26.541Z,90.19
2022-10-22T12:45:36.883Z,90.99
2022-10-22T12:50:47.522Z,91.44
2022-10-22T12:55:56.708Z,91.44
2022-10-22T13:01:04.261Z,91.95
2022-10-22T13:06:27.594Z,92.91
2022-10-22T13:11:40.012Z,92.88
2022-10-22T13:17:06.064Z,93.30
2022-10-22T13:22:37.220Z,93.46
2022-10-22T13:27:48.890Z,94.04
2022-10-22T13:33:01.254Z,94.06
2022-10-22T13:38:17.371Z,95.05
2022-10-22T13:43:25.555Z,94.82
2022-10-22T13:58:41.008Z,95.44
2022-10-22T14:03:48.521Z,95.57
2022-10-22T14:08:58.613Z,95.41
2022-10-22T14:14:09.194Z,95.55
2022-10-22T14:19:19.914Z,95.57
2022-10-22T14:24:27.118Z,95.83
2022-10-22T14:29:34.297Z,95.26
2022-10-22T14:34:41.739Z,94.92
2022-10-22T14:39:52.856Z,94.82
2022-10-22T14:44:59.917Z,94.92
2022-10-22T14:50:08.791Z,95.09
2022-10-22T14:55:17.693Z,95.63
2022-10-22T15:00:25.164Z,96.10
2022-10-22T15:05:32.656Z,96.40
2022-10-22T15:10:40.417Z,97.27
2022-10-22T15:15:47.570Z,97.88
2022-10-22T15:21:03.314Z,98.20
2022-10-22T15:26:12.770Z,99.01
2022-10-22T15:31:39.680Z,99.29
2022-10-22T15:36:48.067Z,99.58
2022-10-22T15:41:55.934Z,99.87
2022-10-22T15:47:04.112Z,100.00
2022-10-22T15:52:11.718Z,100.00
2022-10-22T15:57:19.228Z,100.00
2022-10-22T16:02:26.837Z,100.00
2022-10-22T16:07:34.336Z,100.00
2022-10-22T16:12:42.847Z,100.00
2022-10-22T16:17:50.478Z,100.00
2022-10-22T16:22:57.892Z,100.00
2022-10-22T16:28:05.031Z,100.00
2022-10-22T16:33:13.318Z,100.00
2022-10-22T16:38:20.652Z,100.00
2022-10-22T16:43:27.800Z,100.00
2022-10-22T16:48:35.312Z,100.00
2022-10-22T16:53:42.817Z,100.00
2022-10-22T16:58:52.149Z,100.00
2022-10-22T17:04:00.433Z,100.00
2022-10-22T17:09:07.862Z,100.00
2022-10-22T17:14:15.405Z,100.00
2022-10-22T17:19:23.971Z,100.00
2022-10-22T17:24:30.907Z,100.00
2022-10-22T17:29:38.932Z,100.00
2022-10-22T17:34:46.558Z,100.00
2022-10-22T17:39:54.000Z,100.00
2022-10-22T17:45:02.229Z,100.00
2022-10-22T17:50:11.385Z,100.00
2022-10-22T17:55:18.686Z,100.00
2022-10-22T18:00:26.572Z,100.00
2022-10-22T18:05:34.684Z,100.00
2022-10-22T18:10:44.058Z,100.00
2022-10-22T18:15:58.407Z,100.00
2022-10-22T18:21:06.127Z,100.00
2022-10-22T18:26:13.745Z,100.00
2022-10-22T18:31:22.904Z,100.00
2022-10-22T18:36:30.273Z,100.00
2022-10-22T18:41:38.049Z,100.00
2022-10-22T18:46:45.479Z,100.00
2022-10-22T18:51:53.625Z,100.00
2022-10-22T18:57:02.942Z,100.00
2022-10-22T19:02:12.310Z,100.00
2022-10-22T19:07:19.434Z,100.00
2022-10-22T19:12:27.214Z,100.00
2022-10-22T19:17:35.541Z,100.00
2022-10-22T19:22:42.971Z,100.00
2022-10-22T19:27:51.480Z,100.00
2022-10-22T19:33:01.982Z,100.00
2022-10-22T19:38:12.612Z,100.00
2022-10-22T19:43:19.810Z,100.00
2022-10-22T19:48:28.841Z,100.00
2022-10-22T19:53:37.572Z,100.00
2022-10-22T19:58:44.821Z,100.00
2022-10-22T20:03:52.384Z,100.00
2022-10-22T20:08:59.837Z,100.00
2022-10-22T20:14:09.201Z,100.00
2022-10-22T20:19:18.534Z,100.00
2022-10-22T20:24:26.245Z,100.00
2022-10-22T20:29:33.721Z,100.00
2022-10-22T20:34:42.617Z,100.00
2022-10-22T20:39:52.444Z,100.00
2022-10-22T20:44:59.757Z,100.00
2022-10-22T20:50:07.791Z,100.00
2022-10-22T21:00:28.672Z,100.00
2022-10-22T21:05:36.054Z,100.00
2022-10-22T21:10:46.155Z,100.00
2022-10-22T21:16:07.403Z,100.00
2022-10-22T21:21:17.229Z,100.00
2022-10-22T21:26:26.670Z,100.00
2022-10-22T21:31:34.873Z,100.00
2022-10-22T21:36:42.842Z,100.00
2022-10-22T21:41:49.882Z,100.00
2022-10-22T21:46:57.076Z,100.00
2022-10-22T21:52:07.089Z,100.00
2022-10-22T21:57:14.148Z,100.00
2022-10-22T22:07:28.523Z,100.00
2022-10-22T22:12:35.525Z,100.00
2022-10-22T22:17:42.558Z,100.00
2022-10-22T22:22:49.769Z,100.00
2022-10-22T22:27:56.974Z,100.00
2022-10-22T22:33:04.113Z,100.00
2022-10-22T22:38:11.350Z,100.00
2022-10-22T22:43:18.460Z,100.00
2022-10-22T22:48:25.499Z,100.00
2022-10-22T22:53:33.238Z,100.00
2022-10-22T22:58:41.687Z,100.00
2022-10-22T23:03:54.661Z,100.00
2022-10-22T23:09:01.975Z,100.00
2022-10-22T23:14:12.765Z,100.00
2022-10-22T23:19:21.874Z,100.00
2022-10-22T23:24:30.778Z,100.00
2022-10-22T23:29:38.166Z,100.00
2022-10-22T23:34:45.167Z,100.00
2022-10-22T23:39:52.186Z,100.00
2022-10-22T23:44:59.566Z,100.00
2022-10-22T23:50:08.041Z,100.00
2022-10-22T23:55:15.474Z,100.00
